createdAt,value
2024-02-29T00:00:27.826Z,51.20
2024-02-29T00:03:31.840Z,50.67
2024-02-29T00:06:35.767Z,43.63
2024-02-29T00:09:38.853Z,53.27
2024-02-29T00:12:41.775Z,45.20
2024-02-29T00:15:44.493Z,51.80
2024-02-29T00:18:49.572Z,47.80
2024-02-29T00:21:52.446Z,50.47
2024-02-29T00:24:55.180Z,47.10
2024-02-29T00:27:58.958Z,53.33
2024-02-29T00:31:01.729Z,51.73
2024-02-29T00:34:05.737Z,53.03
2024-02-29T00:37:08.476Z,51.80
2024-02-29T00:40:11.942Z,54.00
2024-02-29T00:43:14.683Z,51.07
2024-02-29T00:46:17.394Z,54.03
2024-02-29T00:49:21.397Z,49.63
2024-02-29T00:52:24.012Z,52.03
2024-02-29T00:55:26.702Z,50.73
2024-02-29T00:58:29.613Z,60.40
2024-02-29T01:01:32.328Z,52.30
2024-02-29T01:04:36.355Z,51.67
2024-02-29T01:07:41.631Z,50.50
2024-02-29T01:10:44.338Z,47.53
2024-02-29T01:13:47.046Z,53.90
2024-02-29T01:16:49.764Z,59.80
2024-02-29T01:19:53.794Z,56.63
2024-02-29T01:22:56.461Z,57.07
2024-02-29T01:25:59.111Z,52.87
2024-02-29T01:29:01.740Z,50.37
2024-02-29T01:32:12.354Z,55.40
2024-02-29T01:35:22.846Z,51.93
2024-02-29T01:38:25.487Z,54.70
2024-02-29T01:41:28.138Z,57.10
2024-02-29T01:44:30.945Z,57.20
2024-02-29T01:47:33.619Z,52.00
2024-02-29T01:50:39.232Z,62.40
2024-02-29T01:53:42.047Z,52.90
2024-02-29T01:56:44.853Z,51.53
2024-02-29T01:59:49.219Z,57.90
2024-02-29T02:02:52.418Z,54.07
2024-02-29T02:05:56.460Z,51.53
2024-02-29T02:08:59.345Z,53.20
2024-02-29T02:12:01.993Z,57.27
2024-02-29T02:15:04.874Z,52.17
2024-02-29T02:18:07.763Z,54.53
2024-02-29T02:21:11.929Z,54.30
2024-02-29T02:24:14.737Z,58.53
2024-02-29T02:27:17.372Z,56.00
2024-02-29T02:30:19.996Z,53.33
2024-02-29T02:33:22.930Z,52.03
2024-02-29T02:36:26.923Z,54.57
2024-02-29T02:39:29.657Z,51.47
2024-02-29T02:42:32.416Z,55.37
2024-02-29T02:45:35.088Z,57.27
2024-02-29T02:48:37.808Z,55.60
2024-02-29T02:51:41.828Z,54.60
2024-02-29T02:54:44.494Z,72.30
2024-02-29T02:57:47.180Z,50.93
2024-02-29T03:00:50.128Z,54.47
2024-02-29T03:03:53.421Z,50.17
2024-02-29T03:06:57.531Z,55.37
2024-02-29T03:10:00.511Z,53.47
2024-02-29T03:13:03.464Z,51.33
2024-02-29T03:16:06.456Z,50.50
2024-02-29T03:19:09.883Z,52.97
2024-02-29T03:22:14.657Z,55.17
2024-02-29T03:25:17.710Z,53.63
2024-02-29T03:28:20.389Z,50.17
2024-02-29T03:31:23.030Z,54.07
2024-02-29T03:34:25.741Z,50.37
2024-02-29T03:37:29.762Z,52.20
2024-02-29T03:40:32.443Z,57.80
2024-02-29T03:43:35.650Z,46.83
2024-02-29T03:46:38.478Z,55.00
2024-02-29T03:49:41.134Z,48.43
2024-02-29T03:52:45.162Z,57.03
2024-02-29T03:55:49.168Z,54.33
2024-02-29T03:58:53.318Z,51.03
2024-02-29T04:01:57.117Z,50.37
2024-02-29T04:04:59.795Z,61.23
2024-02-29T04:08:04.934Z,58.27
2024-02-29T04:11:07.989Z,49.77
2024-02-29T04:14:10.941Z,48.93
2024-02-29T04:17:13.677Z,47.40
2024-02-29T04:20:16.442Z,54.33
2024-02-29T04:23:20.422Z,53.30
2024-02-29T04:26:25.129Z,52.37
2024-02-29T04:29:27.773Z,51.67
2024-02-29T04:32:30.404Z,54.20
2024-02-29T04:35:33.054Z,46.87
2024-02-29T04:38:37.071Z,54.17
2024-02-29T04:41:39.705Z,53.00
2024-02-29T04:44:42.373Z,55.33
2024-02-29T04:47:45.079Z,58.87
2024-02-29T04:50:47.730Z,47.80
2024-02-29T04:53:51.704Z,45.93
2024-02-29T04:56:54.337Z,49.27
2024-02-29T04:59:58.028Z,49.27
2024-02-29T05:03:00.817Z,53.23
2024-02-29T05:06:04.582Z,48.80
2024-02-29T05:09:08.579Z,49.33
2024-02-29T05:12:11.195Z,55.20
2024-02-29T05:15:13.835Z,49.03
2024-02-29T05:18:16.542Z,50.60
2024-02-29T05:21:19.188Z,49.23
2024-02-29T05:24:23.207Z,48.07
2024-02-29T05:27:30.480Z,49.23
2024-02-29T05:30:33.394Z,44.20
2024-02-29T05:33:36.101Z,44.77
2024-02-29T05:36:38.781Z,47.17
2024-02-29T05:39:43.490Z,48.50
2024-02-29T05:42:46.201Z,62.93
2024-02-29T05:45:48.949Z,46.43
2024-02-29T05:48:51.638Z,46.87
2024-02-29T05:51:54.322Z,45.13
2024-02-29T05:54:58.678Z,45.67
2024-02-29T05:58:01.601Z,48.17
2024-02-29T06:01:04.654Z,47.37
2024-02-29T06:04:07.576Z,43.33
2024-02-29T06:07:10.321Z,45.23
2024-02-29T06:10:14.598Z,44.07
2024-02-29T06:13:17.791Z,45.27
2024-02-29T06:16:21.749Z,40.30
2024-02-29T06:19:24.539Z,41.80
2024-02-29T06:22:27.257Z,38.77
2024-02-29T06:25:31.277Z,42.73
2024-02-29T06:28:33.911Z,46.83
2024-02-29T06:31:36.564Z,44.97
2024-02-29T06:34:39.214Z,44.00
2024-02-29T06:37:43.559Z,38.17
2024-02-29T06:40:48.016Z,44.17
2024-02-29T06:43:50.674Z,43.00
2024-02-29T06:46:53.380Z,40.43
2024-02-29T06:49:56.009Z,48.57
2024-02-29T06:52:59.330Z,44.03
2024-02-29T06:56:05.102Z,38.73
2024-02-29T06:59:07.798Z,38.37
2024-02-29T07:02:10.464Z,38.73
2024-02-29T07:05:13.452Z,40.93
2024-02-29T07:08:16.105Z,35.57
2024-02-29T07:11:20.672Z,33.03
2024-02-29T07:14:23.746Z,37.40
2024-02-29T07:17:26.472Z,36.43
2024-02-29T07:20:29.300Z,39.30
2024-02-29T07:23:32.604Z,35.70
2024-02-29T07:26:41.374Z,34.67
2024-02-29T07:29:44.289Z,33.40
2024-02-29T07:32:46.964Z,35.83
2024-02-29T07:35:49.761Z,35.00
2024-02-29T07:38:52.420Z,41.97
2024-02-29T07:41:56.480Z,44.07
2024-02-29T07:44:59.209Z,36.27
2024-02-29T07:48:04.038Z,33.37
2024-02-29T07:51:06.977Z,29.37
2024-02-29T07:54:10.290Z,32.13
2024-02-29T07:57:14.765Z,29.97
2024-02-29T08:00:18.928Z,33.63
2024-02-29T08:03:21.573Z,31.07
2024-02-29T08:06:24.382Z,30.87
2024-02-29T08:09:27.106Z,31.03
2024-02-29T08:12:31.117Z,28.90
2024-02-29T08:15:35.105Z,26.27
2024-02-29T08:18:39.166Z,34.47
2024-02-29T08:21:41.883Z,32.77
2024-02-29T08:24:44.549Z,26.57
2024-02-29T08:27:48.576Z,26.57
2024-02-29T08:30:51.473Z,29.67
2024-02-29T08:33:54.165Z,25.13
2024-02-29T08:36:56.886Z,32.20
2024-02-29T08:39:59.576Z,28.90
2024-02-29T08:43:03.961Z,25.73
2024-02-29T08:46:06.698Z,25.67
2024-02-29T08:49:09.341Z,25.73
2024-02-29T08:52:12.137Z,30.60
2024-02-29T08:55:15.037Z,33.33
2024-02-29T08:58:19.122Z,24.30
2024-02-29T09:01:22.227Z,25.63
2024-02-29T09:04:25.401Z,26.17
2024-02-29T09:07:28.566Z,21.90
2024-02-29T09:10:31.383Z,21.33
2024-02-29T09:13:36.241Z,17.73
2024-02-29T09:16:39.513Z,21.10
2024-02-29T09:19:42.487Z,20.67
2024-02-29T09:22:45.110Z,19.20
2024-02-29T09:25:47.756Z,21.40
2024-02-29T09:28:51.736Z,27.53
2024-02-29T09:31:54.377Z,17.67
2024-02-29T09:34:57.008Z,21.13
2024-02-29T09:37:59.694Z,17.40
2024-02-29T09:41:12.631Z,18.27
2024-02-29T09:44:27.545Z,16.50
2024-02-29T09:47:33.191Z,18.03
2024-02-29T09:50:35.901Z,16.30
2024-02-29T09:53:38.981Z,16.07
2024-02-29T09:56:42.088Z,16.63
2024-02-29T09:59:46.182Z,16.63
2024-02-29T10:02:51.558Z,17.03
2024-02-29T10:05:55.714Z,16.63
2024-02-29T10:08:58.629Z,15.20
2024-02-29T10:12:03.003Z,13.77
2024-02-29T10:15:11.213Z,14.30
2024-02-29T10:18:13.963Z,14.83
2024-02-29T10:21:16.758Z,13.20
2024-02-29T10:24:20.512Z,13.90
2024-02-29T10:27:23.518Z,14.37
2024-02-29T10:30:29.535Z,18.10
2024-02-29T10:33:34.103Z,12.13
2024-02-29T10:36:36.791Z,14.23
2024-02-29T10:39:41.602Z,14.40
2024-02-29T10:42:44.466Z,14.30
2024-02-29T10:45:52.240Z,14.23
2024-02-29T10:49:01.232Z,10.83
2024-02-29T10:52:11.600Z,12.17
2024-02-29T10:55:20.290Z,11.37
2024-02-29T10:58:26.445Z,9.97
2024-02-29T11:01:30.954Z,12.97
2024-02-29T11:04:33.969Z,11.73
2024-02-29T11:07:36.803Z,11.03
2024-02-29T11:10:39.671Z,12.20
2024-02-29T11:13:43.028Z,11.18
2024-02-29T11:16:47.940Z,9.77
2024-02-29T11:19:58.605Z,10.57
2024-02-29T11:23:10.626Z,9.57
2024-02-29T11:26:14.294Z,9.20
2024-02-29T11:29:17.848Z,9.02
2024-02-29T11:32:30.198Z,9.80
2024-02-29T11:35:34.161Z,7.88
2024-02-29T11:38:40.368Z,7.85
2024-02-29T11:41:43.597Z,9.95
2024-02-29T11:44:48.316Z,10.23
2024-02-29T11:47:52.891Z,9.02
2024-02-29T11:50:55.585Z,8.43
2024-02-29T11:53:59.679Z,10.40
2024-02-29T11:57:02.575Z,12.48
2024-02-29T12:00:07.046Z,8.68
2024-02-29T12:03:11.227Z,8.50
2024-02-29T12:06:13.969Z,10.20
2024-02-29T12:09:16.846Z,11.50
2024-02-29T12:12:22.452Z,9.07
2024-02-29T12:15:25.225Z,7.80
2024-02-29T12:18:29.266Z,21.70
2024-02-29T12:21:31.946Z,7.43
2024-02-29T12:24:35.200Z,8.73
2024-02-29T12:27:37.862Z,9.48
2024-02-29T12:30:40.748Z,9.35
2024-02-29T12:33:45.566Z,9.82
2024-02-29T12:36:48.819Z,9.63
2024-02-29T12:39:55.677Z,10.93
2024-02-29T12:42:58.876Z,9.97
2024-02-29T12:46:01.734Z,9.10
2024-02-29T12:49:05.808Z,13.43
2024-02-29T12:52:08.490Z,11.33
2024-02-29T12:55:11.607Z,9.00
2024-02-29T12:58:14.401Z,10.17
2024-02-29T13:01:17.392Z,10.53
2024-02-29T13:04:21.670Z,8.10
2024-02-29T13:07:24.438Z,10.07
2024-02-29T13:10:27.455Z,10.55
2024-02-29T13:13:30.335Z,10.43
2024-02-29T13:16:33.172Z,8.75
2024-02-29T13:19:37.188Z,12.57
2024-02-29T13:22:40.730Z,11.77
2024-02-29T13:25:43.405Z,9.13
2024-02-29T13:28:47.404Z,11.98
2024-02-29T13:31:50.327Z,8.73
2024-02-29T13:34:54.324Z,9.18
2024-02-29T13:37:56.954Z,8.48
2024-02-29T13:40:59.615Z,12.35
2024-02-29T13:44:03.346Z,10.80
2024-02-29T13:47:06.617Z,9.88
2024-02-29T13:50:11.326Z,10.15
2024-02-29T13:53:14.469Z,9.93
2024-02-29T13:56:19.225Z,9.80
2024-02-29T13:59:22.265Z,10.38
2024-02-29T14:02:24.908Z,10.68
2024-02-29T14:05:28.892Z,12.05
2024-02-29T14:08:31.729Z,10.43
2024-02-29T14:11:34.598Z,11.80
2024-02-29T14:14:37.901Z,10.43
2024-02-29T14:17:41.114Z,10.80
2024-02-29T14:20:45.164Z,14.63
2024-02-29T14:23:48.081Z,13.88
2024-02-29T14:26:52.687Z,10.68
2024-02-29T14:29:55.365Z,13.63
2024-02-29T14:32:58.777Z,12.75
2024-02-29T14:36:02.926Z,11.63
2024-02-29T14:39:12.483Z,11.77
2024-02-29T14:42:15.521Z,14.33
2024-02-29T14:45:18.226Z,14.27
2024-02-29T14:48:21.129Z,11.97
2024-02-29T14:51:25.122Z,16.60
2024-02-29T14:54:27.775Z,12.10
2024-02-29T14:57:30.439Z,12.33
2024-02-29T15:00:33.066Z,12.17
2024-02-29T15:03:36.931Z,14.23
2024-02-29T15:06:41.992Z,13.00
2024-02-29T15:09:44.779Z,12.10
2024-02-29T15:12:47.458Z,12.40
2024-02-29T15:15:50.915Z,12.20
2024-02-29T15:18:53.951Z,12.70
2024-02-29T15:21:57.963Z,13.27
2024-02-29T15:25:00.830Z,10.57
2024-02-29T15:28:05.495Z,22.80
2024-02-29T15:31:08.695Z,10.93
2024-02-29T15:34:11.359Z,9.93
2024-02-29T15:37:15.553Z,11.97
2024-02-29T15:40:18.369Z,9.80
2024-02-29T15:43:21.147Z,7.50
2024-02-29T15:46:23.958Z,9.13
2024-02-29T15:49:26.707Z,9.40
2024-02-29T15:52:30.823Z,9.07
2024-02-29T15:55:33.625Z,8.57
2024-02-29T15:58:36.431Z,7.77
2024-02-29T16:01:39.142Z,9.13
2024-02-29T16:04:41.868Z,10.17
2024-02-29T16:07:45.933Z,13.17
2024-02-29T16:10:48.624Z,7.87
2024-02-29T16:13:51.415Z,12.43
2024-02-29T16:16:54.446Z,12.97
2024-02-29T16:19:57.210Z,9.23
2024-02-29T16:23:01.436Z,14.33
2024-02-29T16:26:04.511Z,11.73
2024-02-29T16:29:07.152Z,8.43
2024-02-29T16:32:11.626Z,11.30
2024-02-29T16:35:14.387Z,11.30
2024-02-29T16:38:18.569Z,9.80
2024-02-29T16:41:21.862Z,14.63
2024-02-29T16:44:27.465Z,9.80
2024-02-29T16:47:30.280Z,7.67
2024-02-29T16:50:32.950Z,10.37
2024-02-29T16:53:36.956Z,10.83
2024-02-29T16:56:40.498Z,10.87
2024-02-29T16:59:44.189Z,12.43
2024-02-29T17:02:46.864Z,12.53
2024-02-29T17:05:49.516Z,13.00
2024-02-29T17:08:53.505Z,13.03
2024-02-29T17:11:56.140Z,15.27
2024-02-29T17:14:58.762Z,14.17
2024-02-29T17:18:01.568Z,14.47
2024-02-29T17:21:04.531Z,14.07
2024-02-29T17:24:08.552Z,15.37
2024-02-29T17:27:11.236Z,19.13
2024-02-29T17:30:16.497Z,15.43
2024-02-29T17:33:19.161Z,14.50
2024-02-29T17:36:21.798Z,13.50
2024-02-29T17:39:25.894Z,15.87
2024-02-29T17:42:29.451Z,13.67
2024-02-29T17:45:32.094Z,14.63
2024-02-29T17:48:35.004Z,15.47
2024-02-29T17:51:38.276Z,16.30
2024-02-29T17:54:42.854Z,27.50
2024-02-29T17:57:46.877Z,19.67
2024-02-29T18:00:49.873Z,17.07
2024-02-29T18:03:52.596Z,15.63
2024-02-29T18:06:55.405Z,15.13
2024-02-29T18:10:01.081Z,14.60
2024-02-29T18:13:04.012Z,15.97
2024-02-29T18:16:07.200Z,16.77
2024-02-29T18:19:10.093Z,17.57
2024-02-29T18:22:12.811Z,18.57
2024-02-29T18:25:18.749Z,20.37
2024-02-29T18:28:22.145Z,16.67
2024-02-29T18:31:24.993Z,15.83
2024-02-29T18:34:27.840Z,19.33
2024-02-29T18:37:30.533Z,16.63
2024-02-29T18:40:34.592Z,17.17
2024-02-29T18:43:37.224Z,21.53
2024-02-29T18:46:40.987Z,20.00
2024-02-29T18:49:43.775Z,20.87
2024-02-29T18:52:46.410Z,68.73
2024-02-29T18:55:50.876Z,21.37
2024-02-29T18:58:54.069Z,22.03
2024-02-29T19:01:57.025Z,20.73
2024-02-29T19:04:59.775Z,24.13
2024-02-29T19:08:02.806Z,23.50
2024-02-29T19:11:07.032Z,22.00
2024-02-29T19:14:09.919Z,24.77
2024-02-29T19:17:13.246Z,21.60
2024-02-29T19:20:16.249Z,24.07
2024-02-29T19:23:18.892Z,23.77
2024-02-29T19:26:23.964Z,23.57
2024-02-29T19:29:27.485Z,33.47
2024-02-29T19:32:30.233Z,22.00
2024-02-29T19:35:34.881Z,28.40
2024-02-29T19:38:37.534Z,24.20
2024-02-29T19:41:43.806Z,24.97
2024-02-29T19:44:46.501Z,26.30
2024-02-29T19:47:50.941Z,22.30
2024-02-29T19:50:54.701Z,25.43
2024-02-29T19:53:57.340Z,24.77
2024-02-29T19:57:01.302Z,23.67
2024-02-29T20:00:07.163Z,24.93
2024-02-29T20:03:09.812Z,26.10
2024-02-29T20:06:12.486Z,23.60
2024-02-29T20:09:16.259Z,23.63
2024-02-29T20:12:20.365Z,27.40
2024-02-29T20:15:23.070Z,23.67
2024-02-29T20:18:28.179Z,26.70
2024-02-29T20:21:31.341Z,26.00
2024-02-29T20:24:34.009Z,29.77
2024-02-29T20:27:37.986Z,24.83
2024-02-29T20:30:40.715Z,24.97
2024-02-29T20:33:43.967Z,28.20
2024-02-29T20:36:47.572Z,26.83
2024-02-29T20:39:50.289Z,26.70
2024-02-29T20:42:54.360Z,32.17
2024-02-29T20:45:57.026Z,28.27
2024-02-29T20:48:59.739Z,31.03
2024-02-29T20:52:02.428Z,27.47
2024-02-29T20:55:05.791Z,29.63
2024-02-29T20:58:09.886Z,26.97
2024-02-29T21:01:12.690Z,29.40
2024-02-29T21:04:15.429Z,26.50
2024-02-29T21:07:18.529Z,29.73
2024-02-29T21:10:21.913Z,28.63
2024-02-29T21:13:27.511Z,30.53
2024-02-29T21:16:32.470Z,25.83
2024-02-29T21:19:35.292Z,29.13
2024-02-29T21:22:38.253Z,28.37
2024-02-29T21:25:40.899Z,29.80
2024-02-29T21:28:47.421Z,29.37
2024-02-29T21:31:50.043Z,30.97
2024-02-29T21:34:52.678Z,27.27
2024-02-29T21:37:55.367Z,28.67
2024-02-29T21:40:58.016Z,29.27
2024-02-29T21:44:02.007Z,32.03
2024-02-29T21:47:05.111Z,29.53
2024-02-29T21:50:09.449Z,30.23
2024-02-29T21:53:12.202Z,27.23
2024-02-29T21:56:15.086Z,28.67
2024-02-29T21:59:19.171Z,29.87
2024-02-29T22:02:22.119Z,30.40
2024-02-29T22:05:24.820Z,27.23
2024-02-29T22:08:27.484Z,29.40
2024-02-29T22:11:30.194Z,29.57
2024-02-29T22:14:34.200Z,31.60
2024-02-29T22:17:36.860Z,28.47
2024-02-29T22:20:39.572Z,32.40
2024-02-29T22:23:42.444Z,30.90
2024-02-29T22:26:45.107Z,30.73
2024-02-29T22:29:49.127Z,32.57
2024-02-29T22:32:51.770Z,29.77
2024-02-29T22:35:54.432Z,31.20
2024-02-29T22:38:57.057Z,29.20
2024-02-29T22:42:02.315Z,32.10
2024-02-29T22:45:09.902Z,34.40
2024-02-29T22:48:12.601Z,31.90
2024-02-29T22:51:15.382Z,29.13
2024-02-29T22:54:18.188Z,30.43
2024-02-29T22:57:20.829Z,35.43
2024-02-29T23:00:31.318Z,31.10
2024-02-29T23:03:34.093Z,31.53
2024-02-29T23:06:36.742Z,32.13
2024-02-29T23:09:39.588Z,32.13
2024-02-29T23:12:42.233Z,34.27
2024-02-29T23:15:46.263Z,32.57
2024-02-29T23:18:49.044Z,39.33
2024-02-29T23:21:51.719Z,31.47
2024-02-29T23:24:54.584Z,32.47
2024-02-29T23:27:57.428Z,32.93
2024-02-29T23:31:01.729Z,34.50
2024-02-29T23:34:04.846Z,33.47
2024-02-29T23:37:08.338Z,34.63
2024-02-29T23:40:11.643Z,35.03
2024-02-29T23:43:14.337Z,34.77
2024-02-29T23:46:18.382Z,34.73
2024-02-29T23:49:21.301Z,32.27
2024-02-29T23:52:24.062Z,34.60
2024-02-29T23:55:27.370Z,35.23
2024-02-29T23:58:30.541Z,35.87
